Time;durP1;ratioP1;P1;durP2;ratioP2;P2;SDS_P1;SDS_P2;PMS_P1;PMS_P2;Temp;Humidity;BMP_temperature;BMP_pressure;BME280_temperature;BME280_humidity;BME280_pressure;Samples;Min_cycle;Max_cycle;Signal;HPM_P1;HPM_P2
2023/08/05 04:07:12;;;;;;;2.63;1.70;;;15.60;99.90;;;;;;4970945;28;20467;-62
2023/08/05 04:09:38;;;;;;;2.53;2.27;;;15.60;99.90;;;;;;4974263;28;20444;-61
2023/08/05 04:12:08;;;;;;;3.73;2.80;;;15.60;99.90;;;;;;4974826;28;20902;-61
2023/08/05 04:14:34;;;;;;;2.53;2.33;;;15.60;99.90;;;;;;4974550;28;20185;-61
2023/08/05 04:17:02;;;;;;;5.13;3.00;;;15.70;99.90;;;;;;4974424;28;20465;-61
2023/08/05 04:19:28;;;;;;;2.40;2.20;;;15.70;99.90;;;;;;4974671;28;20168;-61
2023/08/05 04:21:54;;;;;;;3.13;2.50;;;15.70;99.90;;;;;;4974676;28;20399;-61
2023/08/05 04:24:24;;;;;;;3.23;2.97;;;15.70;99.90;;;;;;4974267;28;20539;-62
2023/08/05 04:26:50;;;;;;;2.80;2.57;;;15.80;99.90;;;;;;4974284;28;20444;-61
2023/08/05 04:29:18;;;;;;;2.83;2.30;;;15.80;99.90;;;;;;4974697;28;20744;-61
2023/08/05 04:31:45;;;;;;;5.33;2.43;;;15.80;99.90;;;;;;4974277;28;20405;-61
2023/08/05 04:34:10;;;;;;;3.37;2.20;;;15.80;99.90;;;;;;4973295;28;20984;-61
2023/08/05 04:36:36;;;;;;;3.63;3.30;;;15.70;99.90;;;;;;4973727;28;20437;-62
2023/08/05 04:39:03;;;;;;;4.10;2.27;;;15.70;99.90;;;;;;4978525;28;20185;-61
2023/08/05 04:41:28;;;;;;;3.13;2.83;;;15.80;99.90;;;;;;4978575;28;20516;-62
2023/08/05 04:43:54;;;;;;;3.30;2.47;;;15.80;99.90;;;;;;4977708;28;20523;-62
2023/08/05 04:46:19;;;;;;;3.90;3.60;;;15.70;99.90;;;;;;4978447;28;20193;-61
2023/08/05 04:48:45;;;;;;;2.90;2.70;;;15.70;99.90;;;;;;4978163;28;20169;-62
2023/08/05 04:51:10;;;;;;;3.37;2.90;;;15.70;99.90;;;;;;4960983;28;20247;-61
2023/08/05 04:53:36;;;;;;;3.73;3.10;;;15.70;99.90;;;;;;4977576;28;20174;-61
2023/08/05 04:56:02;;;;;;;2.03;1.93;;;15.80;99.90;;;;;;4978450;28;20200;-61
2023/08/05 04:58:28;;;;;;;3.30;2.77;;;15.80;99.90;;;;;;4978198;28;20379;-62
2023/08/05 05:00:56;;;;;;;4.30;2.87;;;15.80;99.90;;;;;;4978146;28;20627;-61
2023/08/05 05:03:23;;;;;;;3.90;2.70;;;15.80;99.90;;;;;;4977728;28;20678;-62
2023/08/05 05:05:49;;;;;;;3.07;2.77;;;15.80;99.90;;;;;;4977765;28;20962;-62
2023/08/05 05:08:14;;;;;;;4.03;3.53;;;15.70;99.90;;;;;;4977805;28;20429;-62
2023/08/05 05:10:47;;;;;;;3.40;2.93;;;15.70;99.90;;;;;;4977817;28;20413;-62
2023/08/05 05:13:12;;;;;;;6.47;3.50;;;15.70;99.90;;;;;;4977441;28;20509;-62
2023/08/05 05:15:38;;;;;;;3.60;3.17;;;15.70;99.90;;;;;;4977458;28;20516;-62
2023/08/05 05:18:04;;;;;;;2.73;2.57;;;15.80;99.90;;;;;;4977856;28;20660;-62
2023/08/05 05:20:29;;;;;;;2.87;2.30;;;15.80;99.90;;;;;;4977800;28;20177;-62
2023/08/05 05:22:55;;;;;;;3.23;2.53;;;15.80;99.90;;;;;;4977488;28;20205;-62
2023/08/05 05:25:22;;;;;;;7.20;3.47;;;15.80;99.90;;;;;;4976936;28;20181;-62
2023/08/05 05:27:48;;;;;;;2.57;2.00;;;15.80;99.90;;;;;;4977703;28;20213;-62
2023/08/05 05:30:13;;;;;;;5.47;3.20;;;15.90;99.90;;;;;;4977538;28;20429;-62
2023/08/05 05:32:39;;;;;;;2.50;2.20;;;15.90;99.90;;;;;;4977592;28;20625;-62
2023/08/05 05:35:05;;;;;;;2.63;2.27;;;16.00;99.90;;;;;;4976610;28;20256;-63
2023/08/05 05:37:30;;;;;;;3.00;2.60;;;16.00;99.90;;;;;;4977533;28;20173;-62
2023/08/05 05:39:56;;;;;;;3.50;3.07;;;16.00;99.90;;;;;;4960050;28;20403;-62
2023/08/05 05:42:21;;;;;;;2.87;2.40;;;16.00;99.90;;;;;;4977411;28;20201;-62
2023/08/05 05:44:52;;;;;;;2.93;2.13;;;16.10;99.90;;;;;;4976617;28;20209;-62
2023/08/05 05:47:21;;;;;;;1.90;1.80;;;16.10;99.90;;;;;;4977155;28;20276;-62
2023/08/05 05:49:47;;;;;;;2.83;2.37;;;16.10;99.90;;;;;;4975870;28;20420;-62
2023/08/05 05:52:16;;;;;;;3.00;2.80;;;16.20;99.90;;;;;;4977158;28;20456;-62
2023/08/05 05:54:42;;;;;;;2.60;2.33;;;16.20;99.90;;;;;;4976338;28;20397;-62
2023/08/05 05:57:09;;;;;;;2.33;2.20;;;16.30;99.90;;;;;;4977097;28;20407;-64
2023/08/05 05:59:34;;;;;;;4.80;2.37;;;16.30;99.90;;;;;;4977030;28;20423;-61
2023/08/05 06:02:00;;;;;;;3.10;2.70;;;16.40;99.90;;;;;;4977019;28;20408;-62
2023/08/05 06:04:28;;;;;;;4.40;3.27;;;16.40;99.90;;;;;;4976344;28;20518;-62
2023/08/05 06:06:56;;;;;;;2.70;2.50;;;16.50;99.90;;;;;;4976529;28;20259;-62
2023/08/05 06:09:22;;;;;;;2.50;2.30;;;16.60;99.90;;;;;;4976954;28;20441;-62
2023/08/05 06:11:47;;;;;;;2.27;2.07;;;16.60;99.90;;;;;;4976514;28;20893;-62
2023/08/05 06:14:13;;;;;;;3.57;2.50;;;16.70;99.90;;;;;;4976338;28;20343;-62
2023/08/05 06:16:39;;;;;;;6.13;2.60;;;16.80;99.90;;;;;;4976512;28;20198;-63
2023/08/05 06:19:04;;;;;;;2.23;2.10;;;16.90;99.90;;;;;;4976450;28;20179;-62
2023/08/05 06:21:30;;;;;;;3.33;2.20;;;17.00;99.90;;;;;;4976712;28;20199;-62
2023/08/05 06:23:56;;;;;;;2.67;2.47;;;17.10;99.90;;;;;;4976253;28;20207;-62
2023/08/05 06:26:22;;;;;;;8.20;2.37;;;17.20;99.90;;;;;;4976503;28;20486;-63
2023/08/05 06:28:47;;;;;;;1.83;1.73;;;17.30;99.90;;;;;;4976225;28;20171;-62
2023/08/05 06:31:13;;;;;;;1.90;1.80;;;17.40;99.90;;;;;;4976517;28;20171;-62
2023/08/05 06:33:39;;;;;;;2.00;1.90;;;17.60;99.90;;;;;;4976126;28;20214;-62
2023/08/05 06:36:05;;;;;;;2.30;1.83;;;17.80;99.90;;;;;;4976231;28;20247;-63
2023/08/05 06:38:30;;;;;;;2.30;2.10;;;17.90;99.90;;;;;;4976003;28;20184;-63
2023/08/05 06:40:56;;;;;;;1.90;1.80;;;18.00;99.90;;;;;;4976410;28;20415;-62
2023/08/05 06:43:22;;;;;;;1.20;1.20;;;18.00;99.90;;;;;;4976176;28;20196;-63
2023/08/05 06:45:47;;;;;;;2.57;1.77;;;18.10;99.90;;;;;;4975776;28;20228;-62
2023/08/05 06:48:13;;;;;;;1.93;1.50;;;18.20;99.90;;;;;;4976011;28;20180;-63
2023/08/05 06:50:39;;;;;;;2.80;2.60;;;18.40;99.90;;;;;;4975992;28;20219;-62
2023/08/05 06:53:04;;;;;;;1.50;1.40;;;18.50;99.90;;;;;;4975734;28;20207;-63
2023/08/05 06:55:30;;;;;;;1.30;1.20;;;18.60;99.90;;;;;;4975539;28;20274;-62
2023/08/05 06:57:55;;;;;;;1.90;1.80;;;18.70;99.90;;;;;;4976055;28;20539;-63
2023/08/05 07:00:21;;;;;;;1.50;1.37;;;18.80;99.90;;;;;;4975913;28;20182;-62
2023/08/05 07:02:46;;;;;;;2.13;2.03;;;19.00;99.90;;;;;;4975824;28;20206;-62
2023/08/05 07:05:12;;;;;;;2.30;1.57;;;19.20;99.90;;;;;;4975093;28;20507;-62
2023/08/05 07:07:39;;;;;;;1.57;1.30;;;19.30;99.90;;;;;;4975644;28;20654;-62
2023/08/05 07:10:07;;;;;;;1.53;1.43;;;19.50;99.90;;;;;;4975866;28;20437;-63
2023/08/05 07:12:34;;;;;;;1.40;1.30;;;19.60;99.90;;;;;;4975648;28;20188;-63
2023/08/05 07:15:00;;;;;;;1.77;1.67;;;19.70;99.90;;;;;;4974947;28;20917;-63
2023/08/05 07:17:25;;;;;;;1.20;1.00;;;19.80;99.90;;;;;;4975331;28;20421;-63
2023/08/05 07:19:51;;;;;;;1.27;1.23;;;19.90;99.90;;;;;;4975682;28;20183;-63
2023/08/05 07:22:17;;;;;;;1.53;1.43;;;20.10;99.90;;;;;;4975359;28;20211;-63
2023/08/05 07:24:42;;;;;;;1.70;1.60;;;20.30;99.90;;;;;;4974731;28;20199;-63
2023/08/05 07:27:08;;;;;;;1.40;1.30;;;20.40;99.90;;;;;;4975471;28;20256;-63
2023/08/05 07:29:33;;;;;;;1.47;1.37;;;20.60;99.90;;;;;;4975281;28;20204;-63
2023/08/05 07:31:59;;;;;;;1.83;1.73;;;20.80;99.90;;;;;;4975680;28;20176;-63
2023/08/05 07:34:30;;;;;;;1.17;1.10;;;21.00;99.90;;;;;;4974498;28;20180;-63
2023/08/05 07:36:56;;;;;;;1.40;1.37;;;21.20;99.90;;;;;;4975417;28;20203;-63
2023/08/05 07:39:23;;;;;;;1.20;1.20;;;21.60;99.90;;;;;;4975348;28;20864;-63
2023/08/05 07:41:49;;;;;;;2.00;1.80;;;21.80;99.90;;;;;;4975365;28;20179;-63
2023/08/05 07:44:15;;;;;;;1.43;1.33;;;22.10;99.90;;;;;;4974497;28;20479;-63
2023/08/05 07:46:41;;;;;;;1.70;1.60;;;22.30;99.90;;;;;;4975100;28;20768;-63
2023/08/05 07:49:07;;;;;;;2.03;1.80;;;22.40;99.90;;;;;;4975410;28;20165;-64
2023/08/05 07:51:33;;;;;;;1.67;1.50;;;22.60;99.90;;;;;;4975029;28;20440;-63
2023/08/05 07:53:59;;;;;;;2.00;1.13;;;22.90;99.90;;;;;;4974379;28;20643;-63
2023/08/05 07:56:25;;;;;;;2.10;1.90;;;23.10;99.90;;;;;;4974832;28;20219;-63
2023/08/05 07:58:51;;;;;;;1.63;1.53;;;23.30;99.90;;;;;;4975019;28;20498;-63
2023/08/05 08:01:19;;;;;;;1.80;1.33;;;23.60;99.90;;;;;;4974777;28;20184;-63
2023/08/05 08:03:46;;;;;;;1.50;1.40;;;24.00;99.90;;;;;;4974291;28;20826;-64
2023/08/05 08:06:15;;;;;;;1.67;1.57;;;24.30;99.90;;;;;;4974702;28;20934;-63
2023/08/05 08:08:43;;;;;;;1.70;1.60;;;24.30;99.90;;;;;;4974279;28;20884;-63
2023/08/05 08:11:12;;;;;;;1.43;1.33;;;24.20;99.90;;;;;;4974783;28;20403;-63
2023/08/05 08:13:38;;;;;;;1.77;1.67;;;24.50;99.90;;;;;;4974286;28;20457;-63
2023/08/05 08:16:04;;;;;;;1.40;1.30;;;25.10;99.90;;;;;;4974608;28;20386;-64
2023/08/05 08:18:30;;;;;;;1.80;1.60;;;25.70;99.80;;;;;;4974173;28;20410;-63
2023/08/05 08:20:55;;;;;;;2.30;2.10;;;26.00;99.00;;;;;;4974421;28;20959;-64
2023/08/05 08:23:22;;;;;;;2.00;1.90;;;26.20;98.30;;;;;;4974657;28;20207;-64
2023/08/05 08:25:47;;;;;;;1.80;1.70;;;26.20;98.00;;;;;;4974273;28;20203;-64
2023/08/05 08:28:13;;;;;;;1.80;1.43;;;26.20;97.70;;;;;;4974271;28;20398;-64
2023/08/05 08:30:38;;;;;;;1.47;1.37;;;26.10;97.50;;;;;;4974749;28;20186;-63
2023/08/05 08:33:04;;;;;;;1.93;1.83;;;26.00;97.60;;;;;;4974655;28;20191;-64
2023/08/05 08:35:30;;;;;;;1.80;1.70;;;26.00;97.80;;;;;;4974185;28;20557;-63
2023/08/05 08:37:55;;;;;;;2.30;1.80;;;25.80;97.10;;;;;;4974364;28;20191;-64
2023/08/05 08:40:21;;;;;;;1.70;1.60;;;25.80;97.70;;;;;;4974377;28;20575;-64
2023/08/05 08:42:49;;;;;;;1.57;1.47;;;25.90;97.30;;;;;;4974767;28;20193;-64
2023/08/05 08:45:17;;;;;;;1.40;1.30;;;26.30;97.20;;;;;;4974205;28;20606;-64
2023/08/05 08:47:44;;;;;;;1.57;1.47;;;27.20;95.60;;;;;;4974440;28;20437;-65
2023/08/05 08:50:11;;;;;;;1.43;1.33;;;28.50;94.50;;;;;;4974033;28;20438;-65
2023/08/05 08:52:38;;;;;;;1.77;1.67;;;29.80;91.60;;;;;;4974482;28;20411;-65
2023/08/05 08:55:04;;;;;;;2.03;1.93;;;30.60;90.00;;;;;;4973718;28;20789;-65
2023/08/05 08:57:29;;;;;;;1.53;1.43;;;31.20;86.60;;;;;;4976044;28;20451;-61
2023/08/05 08:59:56;;;;;;;1.93;1.83;;;31.50;88.90;;;;;;4979091;28;20639;-66
2023/08/05 09:02:26;;;;;;;2.20;2.10;;;31.40;86.40;;;;;;4976329;28;20223;-64
2023/08/05 09:04:53;;;;;;;2.00;1.90;;;31.10;84.60;;;;;;4978031;28;20898;-64
2023/08/05 09:07:21;;;;;;;1.80;1.70;;;30.90;84.70;;;;;;4977921;28;20478;-64
2023/08/05 09:09:47;;;;;;;2.40;1.60;;;30.90;84.90;;;;;;4974777;28;20418;-66
2023/08/05 09:12:14;;;;;;;1.40;1.30;;;30.80;83.50;;;;;;4974991;28;20407;-64
2023/08/05 09:14:40;;;;;;;2.27;2.07;;;31.00;85.70;;;;;;4956183;28;20794;-65
2023/08/05 09:17:06;;;;;;;2.60;2.40;;;31.40;83.60;;;;;;4974256;28;20422;-65
2023/08/05 09:19:31;;;;;;;2.20;1.97;;;31.90;82.90;;;;;;4974321;28;20172;-63
2023/08/05 09:22:00;;;;;;;2.40;2.03;;;31.60;81.20;;;;;;4974343;28;20232;-65
2023/08/05 09:24:26;;;;;;;1.80;1.70;;;31.00;82.50;;;;;;4976619;28;20203;-64
2023/08/05 09:26:56;;;;;;;2.10;1.97;;;30.20;82.20;;;;;;4977666;28;20432;-64
2023/08/05 09:29:24;;;;;;;1.97;1.73;;;30.20;84.20;;;;;;4977402;28;20220;-64
2023/08/05 09:31:59;;;;;;;1.97;1.87;;;30.20;84.80;;;;;;4977410;28;20470;-65
2023/08/05 09:34:37;;;;;;;1.87;1.77;;;30.30;83.50;;;;;;4977143;28;20894;-62
2023/08/05 09:37:04;;;;;;;1.60;1.50;;;31.10;81.80;;;;;;4977329;28;20817;-63
2023/08/05 09:39:47;;;;;;;1.43;1.33;;;31.90;81.50;;;;;;4977263;28;20420;-63
2023/08/05 09:42:19;;;;;;;1.73;1.63;;;32.70;80.30;;;;;;4977503;28;20410;-63
2023/08/05 09:44:45;;;;;;;1.80;1.70;;;32.70;76.50;;;;;;4976954;28;20763;-63
2023/08/05 09:47:20;;;;;;;1.80;1.70;;;31.50;77.20;;;;;;4959981;28;20439;-62
2023/08/05 09:49:49;;;;;;;1.70;1.60;;;30.30;80.40;;;;;;4977147;28;20422;-62
2023/08/05 09:52:21;;;;;;;1.60;1.50;;;29.60;81.70;;;;;;4976919;28;20822;-64
2023/08/05 09:55:13;;;;;;;1.43;1.33;;;29.60;83.10;;;;;;4976622;28;20419;-65
2023/08/05 09:57:43;;;;;;;1.50;1.40;;;29.80;82.00;;;;;;4977115;28;20784;-65
2023/08/05 10:00:14;;;;;;;1.70;1.60;;;30.30;83.50;;;;;;4976972;28;20382;-63
2023/08/05 10:02:44;;;;;;;2.40;1.50;;;31.00;80.50;;;;;;4977053;28;20821;-65
2023/08/05 10:05:11;;;;;;;2.10;2.00;;;31.00;79.20;;;;;;4976739;28;20422;-61
2023/08/05 10:07:41;;;;;;;1.60;1.50;;;30.60;80.00;;;;;;4976484;28;20446;-65
2023/08/05 10:10:08;;;;;;;1.60;1.50;;;30.20;78.40;;;;;;4976922;28;20913;-63
2023/08/05 10:13:08;;;;;;;1.60;1.50;;;30.60;77.90;;;;;;4976698;28;20416;-62
2023/08/05 10:15:37;;;;;;;1.40;1.30;;;30.90;78.70;;;;;;4958740;28;20483;-63
2023/08/05 10:18:10;;;;;;;1.70;1.60;;;30.30;79.10;;;;;;4976794;28;20526;-63
2023/08/05 10:20:37;;;;;;;1.50;1.40;;;29.50;81.00;;;;;;4959282;28;20550;-62
2023/08/05 10:23:04;;;;;;;1.40;1.30;;;28.90;82.20;;;;;;4976691;28;20455;-62
2023/08/05 10:25:44;;;;;;;1.50;1.40;;;27.90;84.70;;;;;;4976367;28;20752;-62
2023/08/05 10:28:22;;;;;;;1.70;1.60;;;27.10;86.90;;;;;;4976907;28;20423;-62
2023/08/05 10:30:48;;;;;;;1.60;1.50;;;26.60;88.70;;;;;;4976583;28;20427;-62
2023/08/05 10:33:15;;;;;;;1.63;1.27;;;26.00;89.20;;;;;;4976795;28;20408;-62
2023/08/05 10:35:42;;;;;;;1.30;1.30;;;25.50;91.30;;;;;;4975093;28;20211;-62
2023/08/05 10:38:19;;;;;;;1.67;1.57;;;25.00;92.30;;;;;;4976505;28;20498;-62
2023/08/05 10:40:48;;;;;;;1.20;1.20;;;24.70;92.00;;;;;;4976455;28;20447;-63
2023/08/05 10:43:31;;;;;;;1.47;1.37;;;24.40;93.10;;;;;;4976019;28;20434;-63
2023/08/05 10:46:09;;;;;;;0.93;0.93;;;24.50;93.50;;;;;;4976055;28;20436;-63
2023/08/05 10:48:42;;;;;;;1.00;1.00;;;24.70;93.80;;;;;;4976243;28;20496;-63
2023/08/05 10:51:19;;;;;;;0.97;0.90;;;24.70;92.30;;;;;;4975893;28;20492;-63
2023/08/05 10:53:51;;;;;;;1.30;1.20;;;24.70;92.60;;;;;;4975842;28;20435;-62
2023/08/05 10:56:17;;;;;;;1.17;1.17;;;24.90;92.80;;;;;;4976087;28;20398;-63
2023/08/05 10:58:48;;;;;;;1.40;1.30;;;25.10;92.60;;;;;;4977554;28;20478;-63
2023/08/05 11:01:14;;;;;;;1.47;1.40;;;25.20;92.50;;;;;;4975954;28;20408;-63
2023/08/05 11:03:47;;;;;;;0.93;0.93;;;25.30;92.60;;;;;;4975653;28;20513;-63
2023/08/05 11:06:14;;;;;;;1.60;1.23;;;25.50;92.00;;;;;;4975671;28;21005;-63
2023/08/05 11:08:42;;;;;;;1.30;1.20;;;25.60;92.00;;;;;;4975923;28;20386;-62
2023/08/05 11:11:09;;;;;;;1.53;1.43;;;25.80;91.80;;;;;;4976063;28;20408;-63
2023/08/05 11:13:36;;;;;;;1.30;1.20;;;25.80;90.90;;;;;;4975254;28;20435;-63
2023/08/05 11:16:03;;;;;;;1.07;0.97;;;25.90;91.00;;;;;;4975568;28;20439;-63
2023/08/05 11:18:29;;;;;;;1.13;1.07;;;26.10;91.30;;;;;;4975730;28;20918;-63
2023/08/05 11:20:55;;;;;;;1.40;1.40;;;26.10;86.90;;;;;;4975600;28;20399;-63
2023/08/05 11:23:22;;;;;;;1.10;1.10;;;26.10;86.70;;;;;;4975578;28;20455;-63
2023/08/05 11:25:48;;;;;;;1.20;1.10;;;26.20;87.90;;;;;;4958041;28;20425;-63
2023/08/05 11:28:14;;;;;;;1.57;1.47;;;26.10;86.80;;;;;;4975289;28;20391;-63
2023/08/05 11:30:40;;;;;;;1.63;1.20;;;26.10;86.00;;;;;;4975541;28;20516;-63
2023/08/05 11:33:06;;;;;;;1.40;1.30;;;26.10;86.50;;;;;;4959629;28;20390;-63
2023/08/05 11:35:31;;;;;;;1.20;1.20;;;25.90;89.50;;;;;;4975331;28;20612;-64
2023/08/05 11:37:57;;;;;;;1.80;1.33;;;25.70;89.20;;;;;;4975766;28;20502;-63
2023/08/05 11:40:26;;;;;;;1.20;1.10;;;25.70;90.30;;;;;;4975384;28;20642;-63
2023/08/05 11:42:52;;;;;;;1.67;1.57;;;25.60;89.70;;;;;;4974870;28;20203;-63
2023/08/05 11:45:18;;;;;;;1.17;1.07;;;25.60;90.30;;;;;;4974783;28;20407;-63
2023/08/05 11:47:44;;;;;;;1.37;0.93;;;25.50;90.60;;;;;;4974719;28;20172;-63
2023/08/05 11:50:11;;;;;;;1.80;1.70;;;25.50;90.60;;;;;;4975162;28;20754;-63
2023/08/05 11:52:38;;;;;;;1.30;1.27;;;25.40;90.40;;;;;;4975144;28;20419;-64
2023/08/05 11:55:05;;;;;;;1.50;1.40;;;25.40;90.10;;;;;;4974820;28;20413;-63
2023/08/05 11:57:32;;;;;;;1.60;1.50;;;25.30;91.10;;;;;;4974810;28;20404;-63
2023/08/05 12:00:08;;;;;;;1.37;1.30;;;25.30;90.40;;;;;;4975036;28;20386;-63
2023/08/05 12:02:34;;;;;;;1.70;1.60;;;25.50;89.80;;;;;;4974683;28;20457;-64
2023/08/05 12:05:00;;;;;;;1.77;1.67;;;25.50;90.50;;;;;;4974598;28;20384;-63
2023/08/05 12:07:26;;;;;;;1.00;1.00;;;25.60;90.60;;;;;;4974660;28;20450;-63
2023/08/05 12:10:06;;;;;;;1.57;1.00;;;25.80;89.30;;;;;;4974707;28;20454;-63
2023/08/05 12:12:31;;;;;;;1.50;1.40;;;25.90;90.30;;;;;;4974698;28;20207;-62
2023/08/05 12:15:10;;;;;;;1.40;1.33;;;26.00;91.40;;;;;;4972254;28;20808;-63
2023/08/05 12:17:36;;;;;;;1.10;1.10;;;26.00;90.00;;;;;;4974805;28;20172;-63
2023/08/05 12:20:04;;;;;;;1.27;1.17;;;25.90;91.30;;;;;;4974787;28;20913;-63
2023/08/05 12:22:29;;;;;;;1.17;1.17;;;25.60;91.00;;;;;;4974678;28;20676;-63
2023/08/05 12:24:55;;;;;;;1.97;1.87;;;25.50;91.10;;;;;;4974290;28;20401;-63
2023/08/05 12:27:20;;;;;;;1.20;1.20;;;25.40;91.10;;;;;;4974871;28;20193;-63
2023/08/05 12:29:46;;;;;;;1.33;1.17;;;25.40;91.30;;;;;;4960216;28;20533;-63
2023/08/05 12:32:11;;;;;;;1.10;1.10;;;25.30;91.70;;;;;;4976068;28;20737;-63
2023/08/05 12:34:37;;;;;;;1.60;1.50;;;25.20;92.40;;;;;;4974330;28;20235;-63
2023/08/05 12:37:03;;;;;;;1.40;1.30;;;25.10;93.20;;;;;;4974541;28;20230;-63
2023/08/05 12:39:28;;;;;;;1.40;1.20;;;25.10;92.30;;;;;;4974257;28;20187;-63
2023/08/05 12:41:54;;;;;;;1.27;1.17;;;25.10;92.70;;;;;;4974427;28;20181;-63
2023/08/05 12:44:19;;;;;;;1.13;1.13;;;25.00;90.60;;;;;;4974064;28;20213;-62
2023/08/05 12:46:45;;;;;;;1.40;1.30;;;25.00;91.10;;;;;;4974319;28;20207;-63
2023/08/05 12:49:10;;;;;;;1.37;1.27;;;25.00;90.90;;;;;;4974643;28;20190;-63
2023/08/05 12:51:36;;;;;;;1.70;1.60;;;24.90;90.30;;;;;;4957050;28;20186;-63
2023/08/05 12:54:02;;;;;;;1.40;1.17;;;24.90;90.20;;;;;;4973806;28;20273;-63
2023/08/05 12:56:28;;;;;;;1.40;1.30;;;24.90;90.00;;;;;;4974215;28;20337;-63
2023/08/05 12:58:53;;;;;;;1.47;1.40;;;25.00;88.80;;;;;;4976422;28;20832;-63
2023/08/05 13:01:19;;;;;;;1.20;1.20;;;25.10;89.90;;;;;;4978203;28;20205;-63
2023/08/05 13:03:44;;;;;;;0.90;0.90;;;25.10;90.80;;;;;;4977632;28;20210;-63
2023/08/05 13:06:10;;;;;;;1.80;1.70;;;25.20;91.00;;;;;;4977795;28;20191;-63
2023/08/05 13:08:35;;;;;;;1.87;1.77;;;25.10;91.50;;;;;;4977867;28;20195;-63
2023/08/05 13:11:01;;;;;;;1.33;1.23;;;25.10;91.60;;;;;;4977994;28;20175;-62
2023/08/05 13:13:26;;;;;;;1.80;1.40;;;25.10;91.80;;;;;;4977680;28;20218;-63
2023/08/05 13:15:52;;;;;;;1.13;1.13;;;24.90;91.80;;;;;;4977633;28;20271;-63
2023/08/05 13:18:18;;;;;;;2.00;1.80;;;24.80;91.20;;;;;;4977927;28;20209;-63
2023/08/05 13:20:43;;;;;;;1.33;1.23;;;24.70;91.50;;;;;;4977452;28;20265;-63
2023/08/05 13:23:09;;;;;;;1.00;1.00;;;24.60;91.90;;;;;;4977700;28;20582;-63
2023/08/05 13:25:34;;;;;;;1.13;1.10;;;24.50;91.50;;;;;;4977251;28;20259;-62
2023/08/05 13:28:00;;;;;;;1.30;1.20;;;24.40;91.20;;;;;;4977489;28;20180;-63
2023/08/05 13:30:25;;;;;;;1.40;1.23;;;24.30;91.40;;;;;;4977329;28;20169;-63
2023/08/05 13:32:51;;;;;;;1.50;1.33;;;24.30;91.80;;;;;;4977577;28;20543;-63
2023/08/05 13:35:17;;;;;;;1.30;1.30;;;24.30;91.90;;;;;;4976815;28;20187;-63
2023/08/05 13:37:42;;;;;;;2.00;1.90;;;24.40;91.80;;;;;;4977506;28;20184;-63
2023/08/05 13:40:08;;;;;;;1.33;1.23;;;24.40;91.70;;;;;;4977524;28;20183;-63
2023/08/05 13:42:34;;;;;;;1.27;1.23;;;24.50;92.50;;;;;;4959880;28;20204;-63
2023/08/05 13:44:59;;;;;;;1.30;1.20;;;24.50;91.80;;;;;;4976967;28;20416;-63
2023/08/05 13:47:25;;;;;;;1.47;1.33;;;24.60;91.80;;;;;;4977038;28;20276;-63
2023/08/05 13:49:50;;;;;;;2.13;2.03;;;24.60;92.00;;;;;;4977092;28;20210;-63
2023/08/05 13:52:16;;;;;;;1.90;1.80;;;24.70;91.50;;;;;;4977249;28;20189;-63
2023/08/05 13:54:41;;;;;;;2.87;2.67;;;24.70;92.20;;;;;;4976773;28;20177;-63
2023/08/05 13:57:07;;;;;;;3.10;2.87;;;24.70;92.40;;;;;;4977051;28;20322;-62
2023/08/05 13:59:32;;;;;;;3.17;2.70;;;24.80;92.40;;;;;;4977225;28;20252;-62
2023/08/05 14:01:58;;;;;;;1.83;1.20;;;24.90;92.60;;;;;;4977005;28;20179;-63
2023/08/05 14:04:23;;;;;;;1.50;1.40;;;25.00;91.40;;;;;;4976389;28;20297;-63
2023/08/05 14:06:49;;;;;;;1.50;1.40;;;25.00;91.60;;;;;;4976698;28;20272;-63
2023/08/05 14:09:15;;;;;;;1.20;1.10;;;25.00;91.80;;;;;;4976527;28;20253;-62
2023/08/05 14:11:40;;;;;;;1.10;1.10;;;25.00;91.70;;;;;;4976278;28;20189;-62
2023/08/05 14:14:06;;;;;;;1.47;1.37;;;25.00;91.30;;;;;;4976396;28;20239;-63
2023/08/05 14:16:31;;;;;;;1.10;1.10;;;25.00;91.40;;;;;;4976664;28;20236;-62
2023/08/05 14:18:57;;;;;;;1.13;1.03;;;25.10;91.80;;;;;;4976634;28;20213;-63
2023/08/05 14:21:23;;;;;;;1.23;1.17;;;24.90;90.10;;;;;;4976839;28;20195;-62
2023/08/05 14:23:49;;;;;;;1.93;1.30;;;24.80;91.30;;;;;;4976165;28;20209;-63
2023/08/05 14:26:14;;;;;;;1.30;1.30;;;24.80;91.60;;;;;;4976552;28;20527;-63
2023/08/05 14:28:40;;;;;;;1.10;1.10;;;24.80;91.90;;;;;;4977094;28;20157;-62
2023/08/05 14:31:06;;;;;;;1.30;1.30;;;24.80;92.10;;;;;;4976299;28;20177;-63
2023/08/05 14:33:31;;;;;;;1.50;1.40;;;24.80;92.50;;;;;;4976187;28;20188;-63
2023/08/05 14:35:57;;;;;;;1.10;1.00;;;24.80;92.00;;;;;;4976722;28;20551;-63
2023/08/05 14:38:23;;;;;;;1.20;1.20;;;24.70;91.60;;;;;;4959145;28;20228;-63
2023/08/05 14:40:48;;;;;;;1.30;1.10;;;24.70;91.70;;;;;;4976315;28;20180;-63
2023/08/05 14:43:14;;;;;;;1.33;1.27;;;24.60;91.60;;;;;;4976568;28;20215;-64
2023/08/05 14:45:40;;;;;;;1.07;1.07;;;24.50;92.00;;;;;;4975466;28;20192;-63
2023/08/05 14:48:06;;;;;;;1.10;1.10;;;24.40;92.20;;;;;;4975809;28;20520;-63
2023/08/05 14:50:38;;;;;;;1.33;1.23;;;24.20;92.10;;;;;;4976130;28;20400;-63
2023/08/05 14:53:04;;;;;;;1.20;1.20;;;24.20;91.70;;;;;;4976035;28;20470;-63
2023/08/05 14:55:30;;;;;;;1.97;1.87;;;24.20;91.90;;;;;;4975328;28;20456;-63
2023/08/05 14:57:56;;;;;;;1.10;1.10;;;24.10;91.80;;;;;;4976077;28;20872;-63
2023/08/05 15:00:24;;;;;;;1.37;1.27;;;24.00;92.10;;;;;;4975985;28;20428;-63
2023/08/05 15:02:52;;;;;;;1.00;1.00;;;23.80;91.30;;;;;;4975861;28;20200;-63
2023/08/05 15:05:18;;;;;;;1.10;1.10;;;23.70;91.50;;;;;;4975190;28;20439;-63
2023/08/05 15:07:43;;;;;;;1.10;1.10;;;23.70;92.90;;;;;;4975596;28;20423;-63
2023/08/05 15:10:10;;;;;;;1.30;1.27;;;23.60;92.30;;;;;;4975837;28;20172;-64
2023/08/05 15:12:36;;;;;;;1.30;1.20;;;23.60;92.10;;;;;;4975689;28;20180;-64
2023/08/05 15:15:01;;;;;;;1.27;1.17;;;23.60;91.10;;;;;;4975017;28;20430;-63
2023/08/05 15:17:27;;;;;;;1.60;1.50;;;23.70;91.00;;;;;;4975758;28;20427;-64
2023/08/05 15:19:53;;;;;;;1.60;1.50;;;23.80;91.90;;;;;;4958614;28;20315;-64
2023/08/05 15:22:19;;;;;;;1.27;1.20;;;23.80;91.00;;;;;;4957912;28;20219;-64
2023/08/05 15:24:45;;;;;;;1.13;1.13;;;23.80;90.80;;;;;;4974978;28;20418;-64
2023/08/05 15:27:10;;;;;;;2.07;1.43;;;23.90;90.80;;;;;;4975530;28;20951;-64
2023/08/05 15:29:36;;;;;;;1.63;1.20;;;23.80;91.30;;;;;;4975067;28;20180;-64
2023/08/05 15:32:02;;;;;;;1.60;1.50;;;23.70;90.70;;;;;;4975475;28;20706;-64
2023/08/05 15:34:31;;;;;;;1.47;1.37;;;23.60;91.20;;;;;;4974671;28;20196;-64
2023/08/05 15:36:57;;;;;;;1.23;1.13;;;23.50;91.10;;;;;;4975226;28;20192;-64
2023/08/05 15:39:23;;;;;;;1.57;1.30;;;23.50;90.30;;;;;;4975328;28;20514;-64
2023/08/05 15:41:51;;;;;;;1.13;1.13;;;23.40;90.70;;;;;;4975583;28;20559;-64
2023/08/05 15:44:17;;;;;;;1.10;1.10;;;23.20;90.70;;;;;;4974506;28;20502;-64
2023/08/05 15:46:43;;;;;;;1.63;1.53;;;23.20;91.20;;;;;;4975026;28;20444;-64
2023/08/05 15:49:09;;;;;;;1.53;1.43;;;23.10;91.80;;;;;;4975220;28;20550;-64
2023/08/05 15:51:35;;;;;;;1.20;1.20;;;23.10;92.00;;;;;;4975219;28;20467;-64
2023/08/05 15:54:01;;;;;;;1.17;1.10;;;23.00;92.30;;;;;;4974691;28;20180;-64
2023/08/05 15:56:26;;;;;;;1.10;1.10;;;22.90;92.10;;;;;;4974592;28;20204;-64
2023/08/05 15:58:52;;;;;;;1.53;1.43;;;22.90;92.00;;;;;;4975435;28;20457;-64
2023/08/05 16:01:17;;;;;;;1.43;1.37;;;22.90;92.00;;;;;;4975120;28;20212;-64
2023/08/05 16:03:43;;;;;;;1.40;1.30;;;22.80;93.10;;;;;;4974442;28;20243;-64
2023/08/05 16:06:10;;;;;;;2.20;1.50;;;22.80;92.70;;;;;;4974764;28;20267;-64
2023/08/05 16:08:37;;;;;;;1.13;1.13;;;22.70;92.30;;;;;;4974916;28;20212;-64
2023/08/05 16:11:08;;;;;;;1.20;1.10;;;22.70;93.10;;;;;;4974505;28;20402;-64
2023/08/05 16:13:34;;;;;;;1.20;1.20;;;22.60;92.90;;;;;;4957030;28;20400;-64
2023/08/05 16:16:15;;;;;;;2.00;1.63;;;22.60;92.80;;;;;;4974779;28;20476;-64
2023/08/05 16:18:41;;;;;;;1.10;1.10;;;22.50;92.10;;;;;;4974020;28;20516;-64
2023/08/05 16:21:10;;;;;;;1.77;1.67;;;22.50;92.30;;;;;;4974478;28;20491;-64
2023/08/05 16:23:36;;;;;;;1.67;1.57;;;22.40;92.20;;;;;;4974217;28;20783;-64
2023/08/05 16:26:09;;;;;;;0.93;0.93;;;22.40;92.10;;;;;;4974822;28;20437;-64
2023/08/05 16:28:35;;;;;;;1.67;1.43;;;22.40;92.50;;;;;;4974849;28;20177;-63
2023/08/05 16:31:00;;;;;;;1.23;1.13;;;22.30;92.10;;;;;;4974746;28;20939;-64
2023/08/05 16:33:26;;;;;;;1.10;1.10;;;22.30;91.80;;;;;;4975428;28;20281;-64
2023/08/05 16:35:51;;;;;;;0.90;0.90;;;22.20;92.00;;;;;;4978329;28;20192;-64
2023/08/05 16:38:17;;;;;;;2.00;1.40;;;22.10;92.20;;;;;;4978903;28;20506;-63
2023/08/05 16:40:42;;;;;;;1.37;1.27;;;22.10;93.10;;;;;;4978842;28;20207;-64
2023/08/05 16:43:08;;;;;;;1.20;1.10;;;22.10;93.20;;;;;;4978385;28;20196;-64
2023/08/05 16:45:34;;;;;;;1.30;1.20;;;22.00;92.80;;;;;;4978053;28;20180;-64
2023/08/05 16:47:59;;;;;;;1.40;1.40;;;21.90;93.20;;;;;;4978478;28;20169;-64
2023/08/05 16:50:25;;;;;;;1.13;1.13;;;21.90;93.10;;;;;;4978647;28;20650;-64
2023/08/05 16:52:50;;;;;;;1.60;1.50;;;21.90;92.90;;;;;;4978467;28;20234;-64